sensor_id;sensor_type;location;lat;lon;timestamp;P1;durP1;ratioP1;P2;durP2;ratioP2
40945;SDS011;55635;50.264;11.918;2023-12-04T00:01:44;33.67;;;15.25;;
40945;SDS011;55635;50.264;11.918;2023-12-04T00:04:28;32.75;;;15.27;;
40945;SDS011;55635;50.264;11.918;2023-12-04T00:07:09;33.13;;;13.73;;
40945;SDS011;55635;50.264;11.918;2023-12-04T00:09:50;32.80;;;15.82;;
40945;SDS011;55635;50.264;11.918;2023-12-04T00:12:31;32.45;;;15.35;;
40945;SDS011;55635;50.264;11.918;2023-12-04T00:15:12;33.65;;;13.80;;
40945;SDS011;55635;50.264;11.918;2023-12-04T00:17:53;31.98;;;14.57;;
40945;SDS011;55635;50.264;11.918;2023-12-04T00:20:34;35.58;;;14.70;;
40945;SDS011;55635;50.264;11.918;2023-12-04T00:23:15;36.25;;;15.98;;
40945;SDS011;55635;50.264;11.918;2023-12-04T00:25:56;33.85;;;14.80;;
40945;SDS011;55635;50.264;11.918;2023-12-04T00:28:37;28.92;;;13.93;;
40945;SDS011;55635;50.264;11.918;2023-12-04T00:31:18;34.08;;;15.65;;
40945;SDS011;55635;50.264;11.918;2023-12-04T00:33:59;32.33;;;14.68;;
40945;SDS011;55635;50.264;11.918;2023-12-04T00:36:40;29.23;;;13.95;;
40945;SDS011;55635;50.264;11.918;2023-12-04T00:39:21;32.20;;;14.70;;
40945;SDS011;55635;50.264;11.918;2023-12-04T00:42:02;32.67;;;14.45;;
40945;SDS011;55635;50.264;11.918;2023-12-04T00:44:43;37.50;;;14.60;;
40945;SDS011;55635;50.264;11.918;2023-12-04T00:47:24;32.58;;;13.63;;
40945;SDS011;55635;50.264;11.918;2023-12-04T00:50:05;39.15;;;15.35;;
40945;SDS011;55635;50.264;11.918;2023-12-04T00:52:47;33.70;;;14.85;;
40945;SDS011;55635;50.264;11.918;2023-12-04T00:55:28;34.25;;;15.15;;
40945;SDS011;55635;50.264;11.918;2023-12-04T00:58:09;34.20;;;15.27;;
40945;SDS011;55635;50.264;11.918;2023-12-04T01:00:50;38.72;;;14.75;;
40945;SDS011;55635;50.264;11.918;2023-12-04T01:03:32;33.30;;;14.48;;
40945;SDS011;55635;50.264;11.918;2023-12-04T01:06:22;33.38;;;14.02;;
40945;SDS011;55635;50.264;11.918;2023-12-04T01:09:04;31.77;;;13.80;;
40945;SDS011;55635;50.264;11.918;2023-12-04T01:11:45;33.03;;;13.48;;
40945;SDS011;55635;50.264;11.918;2023-12-04T01:14:26;35.03;;;14.38;;
40945;SDS011;55635;50.264;11.918;2023-12-04T01:17:07;36.42;;;14.63;;
40945;SDS011;55635;50.264;11.918;2023-12-04T01:19:47;30.63;;;13.48;;
40945;SDS011;55635;50.264;11.918;2023-12-04T01:22:29;33.97;;;14.43;;
40945;SDS011;55635;50.264;11.918;2023-12-04T01:25:10;35.50;;;14.35;;
40945;SDS011;55635;50.264;11.918;2023-12-04T01:27:51;29.85;;;12.60;;
40945;SDS011;55635;50.264;11.918;2023-12-04T01:30:32;31.10;;;14.25;;
40945;SDS011;55635;50.264;11.918;2023-12-04T01:33:13;33.65;;;15.02;;
40945;SDS011;55635;50.264;11.918;2023-12-04T01:35:53;31.55;;;13.70;;
40945;SDS011;55635;50.264;11.918;2023-12-04T01:38:34;33.22;;;15.63;;
40945;SDS011;55635;50.264;11.918;2023-12-04T01:41:17;31.13;;;14.02;;
40945;SDS011;55635;50.264;11.918;2023-12-04T01:43:58;30.95;;;13.05;;
40945;SDS011;55635;50.264;11.918;2023-12-04T01:46:39;24.25;;;11.10;;
40945;SDS011;55635;50.264;11.918;2023-12-04T01:49:22;30.35;;;14.13;;
40945;SDS011;55635;50.264;11.918;2023-12-04T01:52:04;33.88;;;14.27;;
40945;SDS011;55635;50.264;11.918;2023-12-04T01:54:45;32.08;;;13.77;;
40945;SDS011;55635;50.264;11.918;2023-12-04T01:57:26;32.05;;;15.32;;
40945;SDS011;55635;50.264;11.918;2023-12-04T02:00:07;32.55;;;13.63;;
40945;SDS011;55635;50.264;11.918;2023-12-04T02:02:54;29.38;;;13.82;;
40945;SDS011;55635;50.264;11.918;2023-12-04T02:05:35;28.40;;;13.25;;
40945;SDS011;55635;50.264;11.918;2023-12-04T02:08:17;32.28;;;13.18;;
40945;SDS011;55635;50.264;11.918;2023-12-04T02:10:59;28.40;;;11.88;;
40945;SDS011;55635;50.264;11.918;2023-12-04T02:13:40;27.83;;;12.90;;
40945;SDS011;55635;50.264;11.918;2023-12-04T02:16:21;30.95;;;13.52;;
40945;SDS011;55635;50.264;11.918;2023-12-04T02:19:11;29.58;;;12.93;;
40945;SDS011;55635;50.264;11.918;2023-12-04T02:21:53;32.67;;;14.02;;
40945;SDS011;55635;50.264;11.918;2023-12-04T02:24:34;28.38;;;13.90;;
40945;SDS011;55635;50.264;11.918;2023-12-04T02:27:17;28.95;;;14.05;;
40945;SDS011;55635;50.264;11.918;2023-12-04T02:30:04;32.40;;;15.30;;
40945;SDS011;55635;50.264;11.918;2023-12-04T02:32:48;34.35;;;14.30;;
40945;SDS011;55635;50.264;11.918;2023-12-04T02:35:31;24.15;;;11.73;;
40945;SDS011;55635;50.264;11.918;2023-12-04T02:38:14;31.08;;;13.30;;
40945;SDS011;55635;50.264;11.918;2023-12-04T02:40:55;28.92;;;14.50;;
40945;SDS011;55635;50.264;11.918;2023-12-04T02:43:36;32.97;;;13.73;;
40945;SDS011;55635;50.264;11.918;2023-12-04T02:46:17;35.00;;;16.42;;
40945;SDS011;55635;50.264;11.918;2023-12-04T02:48:58;37.55;;;16.65;;
40945;SDS011;55635;50.264;11.918;2023-12-04T02:51:42;32.05;;;15.23;;
40945;SDS011;55635;50.264;11.918;2023-12-04T02:54:23;33.85;;;14.93;;
40945;SDS011;55635;50.264;11.918;2023-12-04T02:57:04;33.47;;;14.80;;
40945;SDS011;55635;50.264;11.918;2023-12-04T02:59:45;35.33;;;16.55;;
40945;SDS011;55635;50.264;11.918;2023-12-04T03:02:26;33.58;;;14.35;;
40945;SDS011;55635;50.264;11.918;2023-12-04T03:05:07;33.25;;;14.43;;
40945;SDS011;55635;50.264;11.918;2023-12-04T03:07:48;28.00;;;12.75;;
40945;SDS011;55635;50.264;11.918;2023-12-04T03:10:29;30.38;;;14.45;;
40945;SDS011;55635;50.264;11.918;2023-12-04T03:13:10;32.88;;;13.80;;
40945;SDS011;55635;50.264;11.918;2023-12-04T03:15:52;32.42;;;14.70;;
40945;SDS011;55635;50.264;11.918;2023-12-04T03:18:32;30.77;;;13.95;;
40945;SDS011;55635;50.264;11.918;2023-12-04T03:21:16;30.42;;;14.73;;
40945;SDS011;55635;50.264;11.918;2023-12-04T03:23:56;28.98;;;13.18;;
40945;SDS011;55635;50.264;11.918;2023-12-04T03:26:37;28.92;;;13.55;;
40945;SDS011;55635;50.264;11.918;2023-12-04T03:29:18;31.38;;;14.07;;
40945;SDS011;55635;50.264;11.918;2023-12-04T03:32:00;30.08;;;13.27;;
40945;SDS011;55635;50.264;11.918;2023-12-04T03:34:40;32.75;;;14.77;;
40945;SDS011;55635;50.264;11.918;2023-12-04T03:37:21;30.30;;;13.68;;
40945;SDS011;55635;50.264;11.918;2023-12-04T03:40:02;32.33;;;13.93;;
40945;SDS011;55635;50.264;11.918;2023-12-04T03:42:44;30.27;;;15.02;;
40945;SDS011;55635;50.264;11.918;2023-12-04T03:45:25;27.80;;;13.32;;
40945;SDS011;55635;50.264;11.918;2023-12-04T03:48:06;29.30;;;14.13;;
40945;SDS011;55635;50.264;11.918;2023-12-04T03:50:47;31.08;;;14.10;;
40945;SDS011;55635;50.264;11.918;2023-12-04T03:53:28;30.67;;;13.95;;
40945;SDS011;55635;50.264;11.918;2023-12-04T03:56:10;30.00;;;13.48;;
40945;SDS011;55635;50.264;11.918;2023-12-04T03:58:52;29.88;;;13.73;;
40945;SDS011;55635;50.264;11.918;2023-12-04T04:01:32;29.52;;;12.93;;
40945;SDS011;55635;50.264;11.918;2023-12-04T04:04:13;28.15;;;12.95;;
40945;SDS011;55635;50.264;11.918;2023-12-04T04:06:54;28.25;;;13.43;;
40945;SDS011;55635;50.264;11.918;2023-12-04T04:09:35;34.13;;;15.25;;
40945;SDS011;55635;50.264;11.918;2023-12-04T04:12:16;32.58;;;15.45;;
40945;SDS011;55635;50.264;11.918;2023-12-04T04:14:57;35.88;;;16.90;;
40945;SDS011;55635;50.264;11.918;2023-12-04T04:17:38;35.90;;;15.88;;
40945;SDS011;55635;50.264;11.918;2023-12-04T04:20:19;35.05;;;16.63;;
40945;SDS011;55635;50.264;11.918;2023-12-04T04:23:00;33.15;;;15.35;;
40945;SDS011;55635;50.264;11.918;2023-12-04T04:25:42;30.30;;;15.43;;
40945;SDS011;55635;50.264;11.918;2023-12-04T04:28:22;37.03;;;17.52;;
40945;SDS011;55635;50.264;11.918;2023-12-04T04:31:04;33.25;;;14.07;;
40945;SDS011;55635;50.264;11.918;2023-12-04T04:33:45;31.25;;;13.75;;
40945;SDS011;55635;50.264;11.918;2023-12-04T04:36:26;36.40;;;16.67;;
40945;SDS011;55635;50.264;11.918;2023-12-04T04:39:07;34.15;;;15.85;;
40945;SDS011;55635;50.264;11.918;2023-12-04T04:41:48;30.33;;;13.38;;
40945;SDS011;55635;50.264;11.918;2023-12-04T04:44:29;30.08;;;14.88;;
40945;SDS011;55635;50.264;11.918;2023-12-04T04:47:10;35.53;;;15.70;;
40945;SDS011;55635;50.264;11.918;2023-12-04T04:49:50;29.83;;;13.05;;
40945;SDS011;55635;50.264;11.918;2023-12-04T04:52:31;36.10;;;16.42;;
40945;SDS011;55635;50.264;11.918;2023-12-04T04:55:12;33.67;;;16.10;;
40945;SDS011;55635;50.264;11.918;2023-12-04T04:57:53;29.40;;;13.52;;
40945;SDS011;55635;50.264;11.918;2023-12-04T05:00:34;34.10;;;14.00;;
40945;SDS011;55635;50.264;11.918;2023-12-04T05:03:15;28.27;;;14.25;;
40945;SDS011;55635;50.264;11.918;2023-12-04T05:05:56;31.65;;;14.50;;
40945;SDS011;55635;50.264;11.918;2023-12-04T05:08:37;33.65;;;15.20;;
40945;SDS011;55635;50.264;11.918;2023-12-04T05:11:18;31.30;;;14.00;;
40945;SDS011;55635;50.264;11.918;2023-12-04T05:13:59;33.15;;;15.27;;
40945;SDS011;55635;50.264;11.918;2023-12-04T05:16:40;31.98;;;14.93;;
40945;SDS011;55635;50.264;11.918;2023-12-04T05:19:21;31.92;;;13.90;;
40945;SDS011;55635;50.264;11.918;2023-12-04T05:22:02;32.33;;;15.48;;
40945;SDS011;55635;50.264;11.918;2023-12-04T05:24:44;27.80;;;13.82;;
40945;SDS011;55635;50.264;11.918;2023-12-04T05:27:25;30.33;;;14.30;;
40945;SDS011;55635;50.264;11.918;2023-12-04T05:30:06;30.70;;;13.57;;
40945;SDS011;55635;50.264;11.918;2023-12-04T05:32:47;34.53;;;15.40;;
40945;SDS011;55635;50.264;11.918;2023-12-04T05:35:28;24.88;;;12.48;;
40945;SDS011;55635;50.264;11.918;2023-12-04T05:38:09;32.30;;;16.08;;
40945;SDS011;55635;50.264;11.918;2023-12-04T05:40:51;25.52;;;12.27;;
40945;SDS011;55635;50.264;11.918;2023-12-04T05:43:32;30.10;;;16.17;;
40945;SDS011;55635;50.264;11.918;2023-12-04T05:46:12;30.00;;;13.82;;
40945;SDS011;55635;50.264;11.918;2023-12-04T05:48:53;35.80;;;16.00;;
40945;SDS011;55635;50.264;11.918;2023-12-04T05:51:34;29.15;;;13.10;;
40945;SDS011;55635;50.264;11.918;2023-12-04T05:54:15;23.85;;;11.98;;
40945;SDS011;55635;50.264;11.918;2023-12-04T05:56:56;23.20;;;11.25;;
40945;SDS011;55635;50.264;11.918;2023-12-04T05:59:37;29.02;;;13.40;;
40945;SDS011;55635;50.264;11.918;2023-12-04T06:02:18;27.63;;;13.48;;
40945;SDS011;55635;50.264;11.918;2023-12-04T06:04:59;24.98;;;12.68;;
40945;SDS011;55635;50.264;11.918;2023-12-04T06:07:40;24.33;;;12.60;;
40945;SDS011;55635;50.264;11.918;2023-12-04T06:10:22;26.38;;;12.65;;
40945;SDS011;55635;50.264;11.918;2023-12-04T06:13:02;21.67;;;10.02;;
40945;SDS011;55635;50.264;11.918;2023-12-04T06:15:44;23.35;;;10.23;;
40945;SDS011;55635;50.264;11.918;2023-12-04T06:18:25;22.25;;;10.20;;
40945;SDS011;55635;50.264;11.918;2023-12-04T06:21:05;21.75;;;11.15;;
40945;SDS011;55635;50.264;11.918;2023-12-04T06:23:47;22.65;;;10.07;;
40945;SDS011;55635;50.264;11.918;2023-12-04T06:26:29;25.08;;;11.75;;
40945;SDS011;55635;50.264;11.918;2023-12-04T06:29:11;20.13;;;10.48;;
40945;SDS011;55635;50.264;11.918;2023-12-04T06:31:53;20.27;;;9.65;;
40945;SDS011;55635;50.264;11.918;2023-12-04T06:34:34;18.55;;;10.05;;
40945;SDS011;55635;50.264;11.918;2023-12-04T06:37:15;24.25;;;13.05;;
40945;SDS011;55635;50.264;11.918;2023-12-04T06:39:58;21.25;;;12.05;;
40945;SDS011;55635;50.264;11.918;2023-12-04T06:42:42;18.83;;;10.00;;
40945;SDS011;55635;50.264;11.918;2023-12-04T06:45:24;21.38;;;10.05;;
40945;SDS011;55635;50.264;11.918;2023-12-04T06:48:06;23.70;;;10.75;;
40945;SDS011;55635;50.264;11.918;2023-12-04T06:50:49;21.13;;;9.52;;
40945;SDS011;55635;50.264;11.918;2023-12-04T06:53:30;18.67;;;8.63;;
40945;SDS011;55635;50.264;11.918;2023-12-04T06:56:11;21.67;;;10.57;;
40945;SDS011;55635;50.264;11.918;2023-12-04T06:58:52;21.10;;;9.65;;
40945;SDS011;55635;50.264;11.918;2023-12-04T07:01:33;19.58;;;9.80;;
40945;SDS011;55635;50.264;11.918;2023-12-04T07:04:16;19.88;;;9.32;;
40945;SDS011;55635;50.264;11.918;2023-12-04T07:07:01;19.83;;;9.80;;
40945;SDS011;55635;50.264;11.918;2023-12-04T07:09:45;21.48;;;9.55;;
40945;SDS011;55635;50.264;11.918;2023-12-04T07:12:26;18.85;;;9.15;;
40945;SDS011;55635;50.264;11.918;2023-12-04T07:15:06;20.25;;;9.15;;
40945;SDS011;55635;50.264;11.918;2023-12-04T07:17:49;16.17;;;6.40;;
40945;SDS011;55635;50.264;11.918;2023-12-04T07:20:30;18.70;;;10.15;;
40945;SDS011;55635;50.264;11.918;2023-12-04T07:23:11;17.70;;;9.05;;
40945;SDS011;55635;50.264;11.918;2023-12-04T07:25:51;20.48;;;9.77;;
40945;SDS011;55635;50.264;11.918;2023-12-04T07:28:33;17.83;;;8.40;;
40945;SDS011;55635;50.264;11.918;2023-12-04T07:31:14;21.67;;;9.68;;
40945;SDS011;55635;50.264;11.918;2023-12-04T07:33:55;16.63;;;8.55;;
40945;SDS011;55635;50.264;11.918;2023-12-04T07:36:37;21.88;;;11.30;;
40945;SDS011;55635;50.264;11.918;2023-12-04T07:39:18;17.98;;;8.95;;
40945;SDS011;55635;50.264;11.918;2023-12-04T07:42:00;18.30;;;8.85;;
40945;SDS011;55635;50.264;11.918;2023-12-04T07:44:41;16.75;;;8.10;;
40945;SDS011;55635;50.264;11.918;2023-12-04T07:47:22;18.83;;;9.00;;
40945;SDS011;55635;50.264;11.918;2023-12-04T07:50:04;19.10;;;8.23;;
40945;SDS011;55635;50.264;11.918;2023-12-04T07:52:46;17.92;;;8.88;;
40945;SDS011;55635;50.264;11.918;2023-12-04T07:55:27;15.93;;;9.05;;
40945;SDS011;55635;50.264;11.918;2023-12-04T07:58:08;16.65;;;7.75;;
40945;SDS011;55635;50.264;11.918;2023-12-04T08:00:49;18.27;;;8.15;;
40945;SDS011;55635;50.264;11.918;2023-12-04T08:03:30;16.77;;;8.18;;
40945;SDS011;55635;50.264;11.918;2023-12-04T08:06:11;13.68;;;7.32;;
40945;SDS011;55635;50.264;11.918;2023-12-04T08:08:52;14.40;;;8.13;;
40945;SDS011;55635;50.264;11.918;2023-12-04T08:11:34;12.82;;;7.60;;
40945;SDS011;55635;50.264;11.918;2023-12-04T08:14:16;13.75;;;6.95;;
40945;SDS011;55635;50.264;11.918;2023-12-04T08:17:00;11.93;;;7.25;;
40945;SDS011;55635;50.264;11.918;2023-12-04T08:19:41;14.60;;;7.82;;
40945;SDS011;55635;50.264;11.918;2023-12-04T08:22:22;12.85;;;7.68;;
40945;SDS011;55635;50.264;11.918;2023-12-04T08:25:03;12.60;;;7.05;;
40945;SDS011;55635;50.264;11.918;2023-12-04T08:27:45;16.40;;;8.55;;
40945;SDS011;55635;50.264;11.918;2023-12-04T08:30:26;16.35;;;9.15;;
40945;SDS011;55635;50.264;11.918;2023-12-04T08:33:07;16.13;;;8.43;;
40945;SDS011;55635;50.264;11.918;2023-12-04T08:35:48;16.30;;;7.32;;
40945;SDS011;55635;50.264;11.918;2023-12-04T08:38:30;17.30;;;8.05;;
40945;SDS011;55635;50.264;11.918;2023-12-04T08:41:10;13.57;;;6.78;;
40945;SDS011;55635;50.264;11.918;2023-12-04T08:43:51;14.93;;;7.57;;
40945;SDS011;55635;50.264;11.918;2023-12-04T08:46:32;15.43;;;7.50;;
40945;SDS011;55635;50.264;11.918;2023-12-04T08:49:13;13.55;;;7.45;;
40945;SDS011;55635;50.264;11.918;2023-12-04T08:51:54;16.50;;;8.80;;
40945;SDS011;55635;50.264;11.918;2023-12-04T08:54:38;17.58;;;7.22;;
40945;SDS011;55635;50.264;11.918;2023-12-04T08:57:21;16.77;;;8.27;;
40945;SDS011;55635;50.264;11.918;2023-12-04T09:00:02;12.73;;;6.93;;
40945;SDS011;55635;50.264;11.918;2023-12-04T09:02:44;13.68;;;6.95;;
40945;SDS011;55635;50.264;11.918;2023-12-04T09:05:25;11.93;;;5.95;;
40945;SDS011;55635;50.264;11.918;2023-12-04T09:08:05;12.63;;;7.13;;
40945;SDS011;55635;50.264;11.918;2023-12-04T09:10:47;14.02;;;7.75;;
40945;SDS011;55635;50.264;11.918;2023-12-04T09:13:28;14.57;;;7.82;;
40945;SDS011;55635;50.264;11.918;2023-12-04T09:16:10;16.27;;;8.38;;
40945;SDS011;55635;50.264;11.918;2023-12-04T09:18:50;12.63;;;7.07;;
40945;SDS011;55635;50.264;11.918;2023-12-04T09:21:33;13.73;;;6.65;;
40945;SDS011;55635;50.264;11.918;2023-12-04T09:24:15;12.27;;;7.15;;
40945;SDS011;55635;50.264;11.918;2023-12-04T09:26:56;13.63;;;7.88;;
40945;SDS011;55635;50.264;11.918;2023-12-04T09:29:37;12.18;;;7.05;;
40945;SDS011;55635;50.264;11.918;2023-12-04T09:32:18;12.18;;;6.80;;
40945;SDS011;55635;50.264;11.918;2023-12-04T09:34:59;12.65;;;7.38;;
40945;SDS011;55635;50.264;11.918;2023-12-04T09:37:40;14.48;;;7.15;;
40945;SDS011;55635;50.264;11.918;2023-12-04T09:40:21;14.70;;;7.50;;
40945;SDS011;55635;50.264;11.918;2023-12-04T09:43:02;13.60;;;7.07;;
40945;SDS011;55635;50.264;11.918;2023-12-04T09:45:46;12.88;;;7.68;;
40945;SDS011;55635;50.264;11.918;2023-12-04T09:48:27;11.02;;;6.63;;
40945;SDS011;55635;50.264;11.918;2023-12-04T09:51:11;12.38;;;7.07;;
40945;SDS011;55635;50.264;11.918;2023-12-04T09:53:54;11.70;;;6.72;;
40945;SDS011;55635;50.264;11.918;2023-12-04T09:56:39;14.25;;;7.70;;
40945;SDS011;55635;50.264;11.918;2023-12-04T09:59:20;10.45;;;6.13;;
40945;SDS011;55635;50.264;11.918;2023-12-04T10:02:07;14.15;;;7.45;;
40945;SDS011;55635;50.264;11.918;2023-12-04T10:04:48;15.45;;;7.47;;
40945;SDS011;55635;50.264;11.918;2023-12-04T10:07:29;13.27;;;7.43;;
40945;SDS011;55635;50.264;11.918;2023-12-04T10:10:10;15.45;;;7.18;;
40945;SDS011;55635;50.264;11.918;2023-12-04T10:12:54;12.52;;;6.63;;
40945;SDS011;55635;50.264;11.918;2023-12-04T10:15:45;14.02;;;7.22;;
40945;SDS011;55635;50.264;11.918;2023-12-04T10:18:31;14.13;;;7.10;;
40945;SDS011;55635;50.264;11.918;2023-12-04T10:21:12;14.15;;;7.53;;
40945;SDS011;55635;50.264;11.918;2023-12-04T10:23:53;11.68;;;6.57;;
40945;SDS011;55635;50.264;11.918;2023-12-04T10:26:34;13.57;;;7.68;;
40945;SDS011;55635;50.264;11.918;2023-12-04T10:29:15;13.70;;;7.40;;
40945;SDS011;55635;50.264;11.918;2023-12-04T10:31:58;11.45;;;6.90;;
40945;SDS011;55635;50.264;11.918;2023-12-04T10:34:42;11.77;;;6.32;;
40945;SDS011;55635;50.264;11.918;2023-12-04T10:37:23;11.10;;;6.70;;
40945;SDS011;55635;50.264;11.918;2023-12-04T10:40:05;13.98;;;6.90;;
40945;SDS011;55635;50.264;11.918;2023-12-04T10:42:50;12.20;;;7.05;;
40945;SDS011;55635;50.264;11.918;2023-12-04T10:45:31;11.23;;;5.93;;
40945;SDS011;55635;50.264;11.918;2023-12-04T10:48:12;11.25;;;6.28;;
40945;SDS011;55635;50.264;11.918;2023-12-04T10:50:55;12.05;;;6.40;;
40945;SDS011;55635;50.264;11.918;2023-12-04T10:53:38;14.45;;;7.00;;
40945;SDS011;55635;50.264;11.918;2023-12-04T10:56:30;13.52;;;7.43;;
40945;SDS011;55635;50.264;11.918;2023-12-04T10:59:18;13.43;;;7.40;;
40945;SDS011;55635;50.264;11.918;2023-12-04T11:02:07;14.10;;;7.70;;
40945;SDS011;55635;50.264;11.918;2023-12-04T11:04:58;13.85;;;7.95;;
40945;SDS011;55635;50.264;11.918;2023-12-04T11:08:02;13.00;;;7.03;;
40945;SDS011;55635;50.264;11.918;2023-12-04T11:10:45;14.77;;;7.13;;
40945;SDS011;55635;50.264;11.918;2023-12-04T11:13:40;13.20;;;7.07;;
40945;SDS011;55635;50.264;11.918;2023-12-04T11:16:25;14.40;;;6.70;;
40945;SDS011;55635;50.264;11.918;2023-12-04T11:19:18;13.07;;;7.30;;
40945;SDS011;55635;50.264;11.918;2023-12-04T11:22:08;13.88;;;5.95;;
40945;SDS011;55635;50.264;11.918;2023-12-04T11:24:52;11.63;;;6.38;;
40945;SDS011;55635;50.264;11.918;2023-12-04T11:27:34;13.45;;;6.75;;
40945;SDS011;55635;50.264;11.918;2023-12-04T11:30:16;13.07;;;7.00;;
40945;SDS011;55635;50.264;11.918;2023-12-04T11:32:58;13.77;;;7.20;;
40945;SDS011;55635;50.264;11.918;2023-12-04T11:35:41;11.38;;;6.38;;
40945;SDS011;55635;50.264;11.918;2023-12-04T11:38:22;11.30;;;6.03;;
40945;SDS011;55635;50.264;11.918;2023-12-04T11:43:57;14.75;;;7.63;;
40945;SDS011;55635;50.264;11.918;2023-12-04T11:46:38;12.30;;;6.88;;
40945;SDS011;55635;50.264;11.918;2023-12-04T11:52:08;12.13;;;6.32;;
40945;SDS011;55635;50.264;11.918;2023-12-04T11:55:00;13.80;;;6.45;;
40945;SDS011;55635;50.264;11.918;2023-12-04T11:57:45;14.55;;;6.43;;
40945;SDS011;55635;50.264;11.918;2023-12-04T12:00:27;12.15;;;6.65;;
40945;SDS011;55635;50.264;11.918;2023-12-04T12:03:08;11.27;;;6.30;;
40945;SDS011;55635;50.264;11.918;2023-12-04T12:05:49;11.13;;;5.93;;
40945;SDS011;55635;50.264;11.918;2023-12-04T12:08:31;12.40;;;6.40;;
40945;SDS011;55635;50.264;11.918;2023-12-04T12:11:12;11.27;;;6.10;;
40945;SDS011;55635;50.264;11.918;2023-12-04T12:13:53;11.20;;;6.57;;
40945;SDS011;55635;50.264;11.918;2023-12-04T12:16:34;11.02;;;5.90;;
40945;SDS011;55635;50.264;11.918;2023-12-04T12:19:18;10.27;;;6.40;;
40945;SDS011;55635;50.264;11.918;2023-12-04T12:21:59;11.70;;;6.28;;
40945;SDS011;55635;50.264;11.918;2023-12-04T12:24:40;8.75;;;4.97;;
40945;SDS011;55635;50.264;11.918;2023-12-04T12:27:21;7.00;;;3.90;;
40945;SDS011;55635;50.264;11.918;2023-12-04T12:30:06;7.80;;;4.35;;
40945;SDS011;55635;50.264;11.918;2023-12-04T12:32:47;8.40;;;4.70;;
40945;SDS011;55635;50.264;11.918;2023-12-04T12:35:31;10.18;;;4.70;;
40945;SDS011;55635;50.264;11.918;2023-12-04T12:38:12;8.32;;;5.20;;
40945;SDS011;55635;50.264;11.918;2023-12-04T12:40:53;10.88;;;6.13;;
40945;SDS011;55635;50.264;11.918;2023-12-04T12:43:34;10.07;;;5.65;;
40945;SDS011;55635;50.264;11.918;2023-12-04T12:46:15;10.70;;;5.88;;
40945;SDS011;55635;50.264;11.918;2023-12-04T12:48:58;12.23;;;6.57;;
40945;SDS011;55635;50.264;11.918;2023-12-04T12:51:39;11.60;;;6.25;;
40945;SDS011;55635;50.264;11.918;2023-12-04T12:54:23;11.73;;;5.85;;
40945;SDS011;55635;50.264;11.918;2023-12-04T12:57:04;10.13;;;5.20;;
40945;SDS011;55635;50.264;11.918;2023-12-04T12:59:45;9.80;;;5.80;;
40945;SDS011;55635;50.264;11.918;2023-12-04T13:02:26;14.25;;;6.40;;
40945;SDS011;55635;50.264;11.918;2023-12-04T13:05:07;13.10;;;6.95;;
40945;SDS011;55635;50.264;11.918;2023-12-04T13:07:49;11.57;;;6.57;;
40945;SDS011;55635;50.264;11.918;2023-12-04T13:10:29;13.88;;;6.60;;
40945;SDS011;55635;50.264;11.918;2023-12-04T13:13:11;9.27;;;5.90;;
40945;SDS011;55635;50.264;11.918;2023-12-04T13:15:53;11.40;;;5.82;;
40945;SDS011;55635;50.264;11.918;2023-12-04T13:18:34;13.00;;;6.70;;
40945;SDS011;55635;50.264;11.918;2023-12-04T13:21:16;11.88;;;6.40;;
40945;SDS011;55635;50.264;11.918;2023-12-04T13:23:57;9.52;;;5.60;;
40945;SDS011;55635;50.264;11.918;2023-12-04T13:26:38;13.02;;;7.18;;
40945;SDS011;55635;50.264;11.918;2023-12-04T13:29:19;10.30;;;6.25;;
40945;SDS011;55635;50.264;11.918;2023-12-04T13:32:00;12.57;;;6.78;;
40945;SDS011;55635;50.264;11.918;2023-12-04T13:34:41;14.48;;;7.43;;
40945;SDS011;55635;50.264;11.918;2023-12-04T13:37:22;11.68;;;6.00;;
40945;SDS011;55635;50.264;11.918;2023-12-04T13:40:05;10.48;;;5.78;;
40945;SDS011;55635;50.264;11.918;2023-12-04T13:42:48;10.60;;;6.50;;
40945;SDS011;55635;50.264;11.918;2023-12-04T13:45:48;10.98;;;6.25;;
40945;SDS011;55635;50.264;11.918;2023-12-04T13:48:29;11.38;;;5.97;;
40945;SDS011;55635;50.264;11.918;2023-12-04T13:51:10;13.90;;;6.90;;
40945;SDS011;55635;50.264;11.918;2023-12-04T13:53:52;12.65;;;6.53;;
40945;SDS011;55635;50.264;11.918;2023-12-04T13:56:41;12.98;;;7.20;;
40945;SDS011;55635;50.264;11.918;2023-12-04T13:59:26;9.82;;;6.03;;
40945;SDS011;55635;50.264;11.918;2023-12-04T14:02:07;11.63;;;5.68;;
40945;SDS011;55635;50.264;11.918;2023-12-04T14:04:52;12.85;;;6.55;;
40945;SDS011;55635;50.264;11.918;2023-12-04T14:07:33;14.60;;;7.05;;
40945;SDS011;55635;50.264;11.918;2023-12-04T14:10:14;10.35;;;5.90;;
40945;SDS011;55635;50.264;11.918;2023-12-04T14:12:54;12.70;;;6.50;;
40945;SDS011;55635;50.264;11.918;2023-12-04T14:15:35;11.70;;;6.35;;
40945;SDS011;55635;50.264;11.918;2023-12-04T14:18:16;11.95;;;6.53;;
40945;SDS011;55635;50.264;11.918;2023-12-04T14:20:57;11.90;;;5.93;;
40945;SDS011;55635;50.264;11.918;2023-12-04T14:23:38;12.60;;;6.60;;
40945;SDS011;55635;50.264;11.918;2023-12-04T14:26:19;12.48;;;5.78;;
40945;SDS011;55635;50.264;11.918;2023-12-04T14:29:00;11.63;;;6.72;;
40945;SDS011;55635;50.264;11.918;2023-12-04T14:31:41;12.73;;;6.53;;
40945;SDS011;55635;50.264;11.918;2023-12-04T14:34:22;13.45;;;6.18;;
40945;SDS011;55635;50.264;11.918;2023-12-04T14:37:03;10.70;;;6.25;;
40945;SDS011;55635;50.264;11.918;2023-12-04T14:39:44;11.60;;;7.03;;
40945;SDS011;55635;50.264;11.918;2023-12-04T14:42:25;12.57;;;6.80;;
40945;SDS011;55635;50.264;11.918;2023-12-04T14:45:07;14.82;;;7.82;;
40945;SDS011;55635;50.264;11.918;2023-12-04T14:47:48;13.95;;;6.88;;
40945;SDS011;55635;50.264;11.918;2023-12-04T14:50:35;14.98;;;7.47;;
40945;SDS011;55635;50.264;11.918;2023-12-04T14:53:17;11.48;;;6.43;;
40945;SDS011;55635;50.264;11.918;2023-12-04T14:56:23;7.80;;;5.40;;
40945;SDS011;55635;50.264;11.918;2023-12-04T14:59:15;13.02;;;6.22;;
40945;SDS011;55635;50.264;11.918;2023-12-04T15:05:19;13.30;;;6.72;;
40945;SDS011;55635;50.264;11.918;2023-12-04T15:08:19;14.73;;;7.82;;
40945;SDS011;55635;50.264;11.918;2023-12-04T15:11:18;15.00;;;7.18;;
40945;SDS011;55635;50.264;11.918;2023-12-04T15:14:22;16.40;;;6.43;;
40945;SDS011;55635;50.264;11.918;2023-12-04T15:17:18;12.43;;;6.32;;
40945;SDS011;55635;50.264;11.918;2023-12-04T15:20:09;11.60;;;6.60;;
40945;SDS011;55635;50.264;11.918;2023-12-04T15:22:50;14.75;;;6.88;;
40945;SDS011;55635;50.264;11.918;2023-12-04T15:25:31;12.43;;;6.43;;
40945;SDS011;55635;50.264;11.918;2023-12-04T15:28:15;12.38;;;6.53;;
40945;SDS011;55635;50.264;11.918;2023-12-04T15:30:56;10.82;;;6.47;;
40945;SDS011;55635;50.264;11.918;2023-12-04T15:33:38;16.20;;;7.20;;
40945;SDS011;55635;50.264;11.918;2023-12-04T15:36:19;14.52;;;7.10;;
40945;SDS011;55635;50.264;11.918;2023-12-04T15:39:02;13.88;;;7.80;;
40945;SDS011;55635;50.264;11.918;2023-12-04T15:41:43;16.75;;;9.15;;
40945;SDS011;55635;50.264;11.918;2023-12-04T15:44:24;15.95;;;8.85;;
40945;SDS011;55635;50.264;11.918;2023-12-04T15:47:05;15.60;;;8.15;;
40945;SDS011;55635;50.264;11.918;2023-12-04T15:49:46;19.02;;;9.10;;
40945;SDS011;55635;50.264;11.918;2023-12-04T15:52:28;16.25;;;7.47;;